Latest Weather Observations for Eildon Fire Tower

IDV60801

Issued at 10:32 am EST Sunday 16 June 2019 (issued every 10 minutes, with the page automatically refreshed every 10 minutes)

About weather observations | Map of weather stations | Latest weather observations for VIC | Other Formats
Station Details ID: 088164 Name: EILDON FIRE TOWER Lat: -37.21 Lon: 145.84 Height: 637.0 m
Data from the previous 72 hours. | See also: Recent months at Eildon Fire Tower
Date/Time
EST
Temp
°C
App
Temp
°C
Dew
Point
°C
Rel
Hum
%
Delta-T
°C
Wind Press
QNH
hPa
Press
MSL
hPa
Rain since
9am
mm
Dir  Spd
km/h
Gust
km/h
Spd
kts
Gust
kts
16/10:30am 8.1 7.2 7.7 97 0.2 N 2 4 1 2 - - 0.0
16/10:00am 7.5 6.8 7.1 97 0.2 CALM 0 4 0 2 - - 0.0
16/09:30am 7.7 7.1 7.3 97 0.2 CALM 0 4 0 2 - - 0.0
16/09:00am 6.5 5.6 6.1 97 0.2 CALM 0 0 0 0 - - 0.2
16/08:30am 6.4 5.5 6.0 97 0.2 CALM 0 2 0 1 - - 0.2
16/08:00am 5.9 3.7 5.5 97 0.2 N 6 6 3 3 - - 0.2
16/07:30am 5.7 3.5 5.3 97 0.2 NNE 6 7 3 4 - - 0.2
16/07:00am 5.8 4.0 5.4 97 0.2 NE 4 6 2 3 - - 0.2
16/06:30am 5.4 3.5 5.0 97 0.2 NE 4 6 2 3 - - 0.2
16/06:00am 5.5 3.2 4.9 96 0.3 ENE 6 7 3 4 - - 0.2
16/05:30am 6.0 3.9 5.6 97 0.2 ENE 6 6 3 3 - - 0.2
16/05:00am 5.7 3.5 5.3 97 0.2 NE 6 7 3 4 - - 0.2
16/04:30am 5.6 3.4 5.2 97 0.2 ENE 6 6 3 3 - - 0.2
16/04:00am 5.5 3.3 5.1 97 0.2 ENE 6 7 3 4 - - 0.2
16/03:30am 5.8 3.6 5.4 97 0.2 NE 6 6 3 3 - - 0.2
16/03:00am 5.9 3.6 5.5 97 0.2 NNE 7 9 4 5 - - 0.2
16/02:30am 5.9 3.6 5.5 97 0.2 NNE 7 9 4 5 - - 0.2
16/02:00am 6.0 3.3 5.6 97 0.2 NNE 9 11 5 6 - - 0.2
16/01:30am 5.6 2.4 5.0 96 0.3 NNE 11 11 6 6 - - 0.2
16/01:00am 5.8 3.0 5.2 96 0.3 NNE 9 13 5 7 - - 0.2
16/12:30am 5.5 2.6 4.8 95 0.3 NNE 9 11 5 6 - - 0.0
16/12:00am 5.9 3.5 5.2 95 0.3 NE 7 9 4 5 - - 0.0
 
Date/Time
EST
Temp
°C
App
Temp
°C
Dew
Point
°C
Rel
Hum
%
Delta-T
°C
Wind Press
QNH
hPa
Press
MSL
hPa
Rain since
9am
mm
Dir  Spd
km/h
Gust
km/h
Spd
kts
Gust
kts
15/11:30pm 6.2 3.4 5.3 94 0.4 NNE 9 9 5 5 - - 0.0
15/11:00pm 6.2 4.0 5.2 93 0.5 NNE 6 7 3 4 - - 0.0
15/10:30pm 6.6 4.8 5.4 92 0.6 NW 4 6 2 3 - - 0.0
15/10:00pm 6.8 5.4 5.3 90 0.7 NW 2 2 1 1 - - 0.0
15/09:30pm 7.0 5.2 5.5 90 0.7 NW 4 4 2 2 - - 0.0
15/09:00pm 7.2 5.3 5.0 86 1.0 NW 4 4 2 2 - - 0.0
15/08:30pm 7.6 5.2 5.2 85 1.1 WNW 7 9 4 5 - - 0.0
15/08:00pm 7.6 5.8 5.2 85 1.1 NNW 4 6 2 3 - - 0.0
15/07:30pm 7.0 6.0 5.5 90 0.7 CALM 0 0 0 0 - - 0.0
15/07:00pm 7.3 6.3 5.4 88 0.9 CALM 0 0 0 0 - - 0.0
15/06:30pm 7.4 6.3 5.2 86 1.0 CALM 0 2 0 1 - - 0.0
15/06:00pm 7.6 5.3 4.9 83 1.2 NNW 6 9 3 5 - - 0.0
15/05:30pm 7.8 5.6 5.3 84 1.2 NW 6 7 3 4 - - 0.0
15/05:00pm 7.9 5.8 5.7 86 1.0 NW 6 9 3 5 - - 0.0
15/04:30pm 8.4 6.0 7.0 91 0.7 W 9 15 5 8 - - 0.0
15/04:00pm 8.4 7.0 7.3 93 0.5 W 4 6 2 3 - - 0.0
15/03:30pm 8.3 5.2 7.1 92 0.6 W 13 17 7 9 - - 0.0
15/03:00pm 8.8 7.4 7.3 90 0.7 WNW 4 6 2 3 - - 0.0
15/02:30pm 8.7 8.0 7.0 89 0.8 CALM 0 2 0 1 - - 0.0
15/02:00pm 9.1 7.8 7.7 91 0.7 NNW 4 7 2 4 - - 0.0
15/01:30pm 8.9 8.0 7.8 93 0.5 N 2 6 1 3 - - 0.0
15/01:00pm 8.7 7.5 8.1 96 0.3 NNE 4 7 2 4 - - 0.0
15/12:30pm 8.7 7.6 8.3 97 0.2 NNE 4 6 2 3 - - 0.0
15/12:00pm 8.2 6.9 7.8 97 0.2 NNE 4 7 2 4 - - 0.0
15/11:30am 8.1 6.8 7.7 97 0.2 NNE 4 7 2 4 - - 0.0
15/11:00am 7.9 6.2 7.5 97 0.2 NE 6 7 3 4 - - 0.0
15/10:30am 7.6 5.6 7.2 97 0.2 NNE 7 9 4 5 - - 0.0
15/10:00am 6.9 5.0 6.5 97 0.2 NE 6 9 3 5 - - 0.0
15/09:30am 6.5 4.5 6.1 97 0.2 NE 6 9 3 5 - - 0.0
15/09:00am 6.6 4.0 6.2 97 0.2 NNE 9 11 5 6 - - 4.8
15/08:30am 6.3 4.0 5.9 97 0.2 NNE 7 9 4 5 - - 4.8
15/08:00am 6.3 3.7 5.9 97 0.2 NE 9 11 5 6 - - 4.8
15/07:30am 6.2 3.5 5.8 97 0.2 NE 9 11 5 6 - - 4.8
15/07:00am 6.1 3.4 5.7 97 0.2 NNE 9 13 5 7 - - 4.8
15/06:30am 6.2 3.5 5.8 97 0.2 NNE 9 11 5 6 - - 4.8
15/06:00am 6.3 3.7 5.9 97 0.2 NNW 9 11 5 6 - - 4.8
15/05:30am 6.5 4.8 6.1 97 0.2 WNW 4 6 2 3 - - 4.8
15/05:00am 6.6 5.0 6.2 97 0.2 WNW 4 4 2 2 - - 4.8
15/04:30am 6.5 4.8 6.1 97 0.2 W 4 6 2 3 - - 4.8
15/04:00am 6.4 3.8 6.0 97 0.2 W 9 11 5 6 - - 4.8
15/03:30am 6.4 4.3 6.0 97 0.2 W 6 7 3 4 - - 4.6
15/03:00am 6.6 4.4 6.2 97 0.2 W 7 9 4 5 - - 4.6
15/02:30am 7.0 4.1 6.6 97 0.2 WSW 11 15 6 8 - - 4.6
15/02:00am 7.0 4.1 6.6 97 0.2 W 11 13 6 7 - - 4.6
15/01:30am 7.2 4.0 6.8 97 0.2 W 13 15 7 8 - - 4.6
15/01:00am 7.5 4.7 7.1 97 0.2 W 11 13 6 7 - - 4.6
15/12:30am 7.7 4.6 7.3 97 0.2 W 13 17 7 9 - - 4.6
15/12:00am 7.9 4.5 7.5 97 0.2 W 15 19 8 10 - - 4.6
 
Date/Time
EST
Temp
°C
App
Temp
°C
Dew
Point
°C
Rel
Hum
%
Delta-T
°C
Wind Press
QNH
hPa
Press
MSL
hPa
Rain since
9am
mm
Dir  Spd
km/h
Gust
km/h
Spd
kts
Gust
kts
14/11:30pm 8.2 4.1 7.8 97 0.2 W 19 22 10 12 - - 4.6
14/11:00pm 8.2 3.5 7.8 97 0.2 W 22 28 12 15 - - 4.6
14/10:30pm 8.5 4.8 8.1 97 0.2 W 17 20 9 11 - - 4.6
14/10:00pm 8.5 4.4 7.9 96 0.3 W 19 24 10 13 - - 4.6
14/09:30pm 8.7 4.5 8.1 96 0.3 W 20 32 11 17 - - 4.6
14/09:00pm 8.7 4.7 8.1 96 0.3 NNW 19 28 10 15 - - 3.2
14/08:30pm 8.8 4.5 7.9 94 0.4 NNW 20 30 11 16 - - 1.6
14/08:00pm 8.9 4.8 8.0 94 0.4 N 19 26 10 14 - - 1.2
14/07:30pm 8.9 5.5 7.8 93 0.5 N 15 24 8 13 - - 1.0
14/07:00pm 9.0 5.3 7.9 93 0.5 NNW 17 30 9 16 - - 1.0
14/06:30pm 9.0 5.3 7.9 93 0.5 NNW 17 24 9 13 - - 1.0
14/06:00pm 8.9 5.5 7.7 92 0.6 NNW 15 24 8 13 - - 0.6
14/05:30pm 9.1 5.6 7.4 89 0.8 NNW 15 24 8 13 - - 0.4
14/05:00pm 9.1 6.0 7.2 88 0.9 NNW 13 22 7 12 - - 0.4
14/04:30pm 9.2 6.1 7.3 88 0.9 NW 13 20 7 11 - - 0.4
14/04:00pm 9.1 6.1 7.5 90 0.8 NNW 13 20 7 11 - - 0.2
14/03:30pm 10.1 7.4 7.5 84 1.3 NNW 11 19 6 10 - - 0.2
14/03:00pm 9.8 5.9 6.9 82 1.4 NW 17 28 9 15 - - 0.2
14/02:30pm 11.0 7.6 7.5 79 1.7 NW 15 24 8 13 - - 0.2
14/02:00pm 9.6 5.4 7.4 86 1.1 NW 19 28 10 15 - - 0.2
14/01:30pm 10.0 6.5 7.4 84 1.3 NW 15 24 8 13 - - 0.2
14/01:00pm 10.1 6.2 7.2 82 1.4 NW 17 24 9 13 - - 0.0
14/12:30pm 11.0 7.2 7.7 80 1.7 NW 17 28 9 15 - - 0.0
14/12:00pm 10.2 7.1 7.4 83 1.4 NW 13 19 7 10 - - 0.0
14/11:30am 9.7 6.6 7.1 84 1.3 WNW 13 20 7 11 - - 0.0
14/11:00am 9.1 6.0 7.1 87 1.0 W 13 17 7 9 - - 0.0
14/10:30am 9.2 6.5 7.2 87 1.0 W 11 15 6 8 - - 0.0
14/10:00am 8.7 7.0 7.6 93 0.5 NNW 6 7 3 4 - - 0.0
14/09:30am 8.0 6.1 6.8 92 0.6 WNW 6 9 3 5 - - 0.0
14/09:00am 7.6 5.7 6.7 94 0.4 WNW 6 9 3 5 - - 0.4
14/08:30am 7.2 4.7 6.6 96 0.3 NW 9 17 5 9 - - 0.4
14/08:00am 7.2 4.3 6.6 96 0.3 W 11 15 6 8 - - 0.4
14/07:30am 7.3 4.4 6.7 96 0.3 WNW 11 15 6 8 - - 0.4
14/07:00am 7.6 4.4 7.0 96 0.3 WNW 13 17 7 9 - - 0.4
14/06:30am 7.8 5.4 7.2 96 0.3 WNW 9 13 5 7 - - 0.4
14/06:00am 7.9 5.9 7.3 96 0.3 WNW 7 13 4 7 - - 0.4
14/05:30am 7.8 5.4 7.2 96 0.3 WNW 9 13 5 7 - - 0.4
14/05:00am 7.8 5.1 7.2 96 0.3 WNW 11 20 6 11 - - 0.4
14/04:30am 7.8 5.1 7.2 96 0.3 WNW 11 17 6 9 - - 0.4
14/04:00am 7.9 4.8 7.3 96 0.3 WNW 13 20 7 11 - - 0.4
14/03:30am 8.0 4.5 7.2 95 0.4 WNW 15 20 8 11 - - 0.4
14/03:00am 8.0 4.1 7.2 95 0.4 WNW 17 24 9 13 - - 0.4
14/02:30am 8.1 5.1 7.5 96 0.3 WNW 13 22 7 12 - - 0.4
14/02:00am 8.2 5.6 7.6 96 0.3 NW 11 19 6 10 - - 0.4
14/01:30am 8.1 4.7 7.5 96 0.3 WNW 15 22 8 12 - - 0.4
14/01:00am 8.2 4.4 7.6 96 0.3 WNW 17 28 9 15 - - 0.4
14/12:30am 8.2 4.0 7.6 96 0.3 WNW 19 28 10 15 - - 0.4
14/12:00am 8.4 4.6 7.6 95 0.4 WNW 17 28 9 15 - - 0.4
 
Date/Time
EST
Temp
°C
App
Temp
°C
Dew
Point
°C
Rel
Hum
%
Delta-T
°C
Wind Press
QNH
hPa
Press
MSL
hPa
Rain since
9am
mm
Dir  Spd
km/h
Gust
km/h
Spd
kts
Gust
kts
13/11:30pm 8.5 4.7 7.6 94 0.4 NW 17 33 9 18 - - 0.4
13/11:00pm 8.4 4.2 7.5 94 0.4 WNW 19 32 10 17 - - 0.4
13/10:30pm 8.5 4.7 7.4 93 0.5 NW 17 28 9 15 - - 0.4
13/10:00pm 8.6 5.1 7.4 92 0.6 NW 15 28 8 15 - - 0.4
13/09:30pm 8.6 5.1 7.4 92 0.6 NW 15 24 8 13 - - 0.4
13/09:00pm 8.5 5.0 7.3 92 0.6 NW 15 24 8 13 - - 0.4
13/08:30pm 8.5 4.6 7.0 90 0.7 NNW 17 26 9 14 - - 0.4
13/08:00pm 8.2 4.2 6.8 91 0.7 NNW 17 26 9 14 - - 0.4
13/07:30pm 8.3 4.4 7.1 92 0.6 NNW 17 26 9 14 - - 0.4
13/07:00pm 8.6 5.5 7.2 91 0.7 WNW 13 26 7 14 - - 0.4
13/06:30pm 8.6 6.2 7.1 90 0.7 NNW 9 17 5 9 - - 0.4
13/06:00pm 8.7 6.2 6.7 87 1.0 NNW 9 15 5 8 - - 0.4
13/05:30pm 8.8 6.3 6.4 85 1.1 NNW 9 17 5 9 - - 0.4
13/05:00pm 9.0 6.8 6.4 84 1.2 NNW 7 15 4 8 - - 0.4
13/04:30pm 9.1 6.2 6.4 83 1.3 NW 11 17 6 9 - - 0.4
13/04:00pm 9.8 6.9 6.5 80 1.6 NW 11 22 6 12 - - 0.4
13/03:30pm 9.3 6.4 6.4 82 1.4 NW 11 19 6 10 - - 0.4
13/03:00pm 9.2 6.4 6.8 85 1.2 NW 11 19 6 10 - - 0.4
13/02:30pm 8.5 5.1 5.8 83 1.3 WNW 13 19 7 10 - - 0.4
13/02:00pm 9.2 6.2 5.9 80 1.6 WNW 11 19 6 10 - - 0.4
13/01:30pm 9.2 6.6 6.3 82 1.4 WNW 9 17 5 9 - - 0.4
13/01:00pm 9.1 5.8 6.2 82 1.4 WNW 13 22 7 12 - - 0.4
13/12:30pm 9.0 6.0 6.1 82 1.4 WNW 11 20 6 11 - - 0.4
13/12:00pm 8.3 4.7 5.2 81 1.4 W 13 19 7 10 - - 0.4
13/11:30am 8.8 4.0 5.5 80 1.5 W 20 30 11 16 - - 0.0
13/11:00am 8.1 4.2 5.4 83 1.3 WNW 15 20 8 11 - - 0.0

Other formats

Comma delimited format used in spreadsheet applications
http://www.bom.gov.au/fwo/IDV60801/IDV60801.94881.axf

JavaScript Object Notation format (JSON) in row-major order
http://www.bom.gov.au/fwo/IDV60801/IDV60801.94881.json

Data quality

Most of these data are generated automatically and are frequently updated. Quality checks on data are not normally performed. It is possible for incorrect values to appear. Refer to information at About Latest Weather Observations and please check the disclaimer before using these data.